Blowing Sand Mountains, Nevada Weather observations

Data are for observation ending at time listed.
 Day   Time    Ave.   Ave.  Ave.  Vector   Max.   Stn.    Total    Solar   Ave.  
  of    of     Air    Rel.  Wind   Wind    Wind   Baro.  Precip.   Rad.    Soil  
Year   Day     Temp.  Hum.  Speed  Dir.    Gust   Pres.                    Temp. 
2016   (PST)    F      %     mph   deg.    mph     mb.     in.     W/m2     F   
------------------------------------------------------------------------------
 120    5:30   32.2    75    0.0     0      0.0    880.0     0.00      23     55.9
 120    5:40   31.7    76    0.0     0      0.0    880.1     0.00      63     55.9
 120    5:50   33.1    77    0.0     0      0.0    880.2     0.00     109     55.8
 120    6:00   34.9    74    0.0     0      0.0    880.3     0.00      82     55.7
 120    6:10   36.3    73    0.0     0      0.0    880.2     0.00     151     55.7
 120    6:20   38.7    70    0.0     0      0.0    880.1     0.00     225     55.6
 120    6:30   41.4    67    0.0     0      0.0    880.1     0.00     245     55.5
 120    6:40   42.1    64    0.0     0      0.0    880.1     0.00     287     55.5
 120    6:50   42.1    63    0.0     0      0.0    880.2     0.00     281     55.5
 120    7:00   42.5    62    0.0     0      0.0    880.2     0.00     202     55.4
 120    7:10   43.6    61    0.4    14      4.2    880.1     0.00     299     55.4
 120    7:20   44.9    59    0.0     0      0.0    880.1     0.00     284     55.4
 120    7:30   46.9    57    0.0     0      0.0    880.1     0.00     255     55.3
 120    7:40   48.3    55    0.0     0      0.0    880.0     0.00     318     55.3
 120    7:50   52.7    51    0.0     0      0.0    879.9     0.00     492     55.3
 120    8:00   54.9    44    0.0     0      0.0    879.9     0.00     487     55.2
 120    8:10   56.4    38    0.0     0      0.0    879.9     0.00     553     55.1
 120    8:20   58.6    34    0.0     0      0.0    879.9     0.00     576     55.1
 120    8:30   59.9    32    0.2   350      3.4    879.9     0.00     616     55.1
 120    8:40   58.4    32    1.4   244      5.0    879.7     0.00     653     55.1
 120    8:50   59.5    31    1.8   317      5.6    879.6     0.00     681     55.0
 120    9:00   59.2    31    1.2   296      5.5    879.5     0.00     718     55.0
 120    9:10   60.5    29    1.9   229      5.2    879.5     0.00     730     55.0
 120    9:20   61.0    28    1.2   322      7.2    879.5     0.00     732     54.9
 120    9:30   61.3    27    2.5   299      7.6    879.5     0.00     732     54.9
 120    9:40   61.1    26    6.4   303     15.1    879.4     0.00     785     54.9
 120    9:50   61.9    24    8.3   325     14.3    879.3     0.00     906     54.8
 120   10:00   62.5    22   10.5   318     16.7    879.3     0.00     746     54.8
 120   10:10   62.4    22    9.7   324     16.0    879.1     0.00     870     54.8
 120   10:20   63.0    22    9.3   329     15.5    879.1     0.00     881     54.8
 120   10:30   62.6    22    8.6   281     16.1    879.0     0.00     883     54.8
 120   10:40   62.4    22    4.5   277     11.5    878.8     0.00     788     54.8
 120   10:50   63.6    21   10.4   298     17.5    878.8     0.00     793     54.8
 120   11:00   63.6    19   12.2   304     18.8    878.7     0.00     700     54.8
 120   11:10   64.0    18   12.2   334     17.8    878.6     0.00     844     54.8
 120   11:20   64.7    19   11.7   317     19.3    878.4     0.00    1019     54.8
 120   11:30   65.3    19    8.1   309     16.2    878.2     0.00     961     54.8
 120   11:40   65.1    17    9.8   293     16.4    878.1     0.00     935     54.8
 120   11:50   64.7    18    5.8   288     11.2    877.9     0.00     943     54.8
 120   12:00   64.9    19    6.4   331     12.7    877.6     0.00     765     54.8
 120   12:10   65.4    15    7.9   296     16.0    877.4     0.00     816     54.9
 120   12:20   65.8    15    8.2   310     13.6    877.3     0.00     920     54.9
 120   12:30   66.3    15    8.3   313     17.2    877.1     0.00     633     54.9
 120   12:40   66.0    15    7.6   316     17.4    877.0     0.00     663     55.0
 120   12:50   65.6    16    7.3   294     15.1    876.8     0.00     385     55.0
 120   13:00   65.4    17   10.9   328     19.3    876.7     0.00     323     55.1
 120   13:10   66.0    17   11.3   331     17.4    876.5     0.00     501     55.1
 120   13:20   66.5    17   11.2   308     17.9    876.4     0.00     406     55.1
 120   13:30   66.8    18   12.1   302     19.8    876.3     0.00     680     55.2
 120   13:40   66.8    18    9.3   278     18.6    876.1     0.00     507     55.2
 120   13:50   66.3    19   10.3   298     16.2    875.8     0.00     392     55.3
 120   14:00   66.0    18    9.0   300     15.1    875.6     0.00     265     55.3
 120   14:10   66.1    18   12.6   278     25.7    875.4     0.00     218     55.4
 120   14:20   64.8    18    9.0   270     17.4    875.2     0.00      97     55.4
 120   14:30   62.6    21   21.5   237     35.9    875.1     0.00      67     55.5
 120   14:40   62.2    22   17.7   280     31.0    875.4     0.00     100     55.6
 120   14:50   62.2    22   14.7   327     30.8    875.7     0.00     127     55.7
 120   15:00   61.2    25   13.3   326     26.7    875.5     0.00     179     55.7
 120   15:10   61.6    24   14.4   357     26.9    875.1     0.00     149     55.8
 120   15:20   62.4    22   12.2   350     17.8    875.0     0.00     146     55.9
 120   15:30   62.3    22   15.9   330     25.5    875.1     0.00      97     55.9
 120   15:40   60.9    25   14.6   308     32.2    875.4     0.00      72     56.0
 120   15:50   60.5    26   16.5   324     28.1    875.5     0.00      56     56.0
 120   16:00   58.7    31   18.3   329     31.7    875.4     0.00      55     56.1
 120   16:10   58.2    32   19.2   348     34.1    875.4     0.00      40     56.2
 120   16:20   55.7    41   21.8   345     37.1    875.8     0.00      22     56.2
 120   16:30   54.4    46   14.7     9     21.3    875.9     0.00      12     56.3
 120   16:40   54.2    48   13.9   356     22.5    876.1     0.00      12     56.4
 120   16:50   53.2    51   16.0   332     24.3    876.6     0.00       8     56.4
 120   17:00   51.9    55   11.9   356     21.9    876.8     0.01       8     56.5
 120   17:10   51.4    58   18.0   349     30.7    877.1     0.01       8     56.6
 120   17:20   49.1    64   18.8   353     25.4    877.3     0.03       7     56.6
 120   17:30   48.3    68   12.7   340     21.0    877.7     0.03       4     56.7
 120   17:40   47.1    70   12.7   327     20.6    878.0     0.02       3     56.7
 120   17:50   46.0    73    9.6   319     15.1    878.1     0.04       2     56.7
 120   18:00   46.3    71    4.3   284      9.7    877.8     0.00       3     56.7
 120   18:10   46.4    71    4.5   275      7.5    878.0     0.01       3     56.8
 120   18:20   46.7    69    3.5   306      5.8    878.0     0.02       2     56.8
 120   18:30   46.0    70    5.0   194      8.5    877.6     0.00       4     56.8
 120   18:40   45.3    74    6.4   155      8.7    877.4     0.00       2     56.9
 120   18:50   44.7    77    5.7   200      7.7    877.6     0.00       1     56.9
 120   19:00   44.2    78    4.5   185      7.2    877.8     0.00       0     56.9
 120   19:10   43.6    79    4.8   171      6.5    877.9     0.00       0     57.0
 120   19:20   43.2    80    4.3   143      6.2    878.0     0.00       0     57.0
 120   19:30   42.8    81    5.9   103      9.7    878.2     0.00       0     57.0
 120   19:40   42.2    80    5.6   133      8.6    878.3     0.00       0     57.0
 120   19:50   42.5    78    5.4   129     10.1    878.3     0.00       0     57.0
 120   20:00   43.4    75    2.6   106      5.6    878.3     0.00       0     57.0
 120   20:10   43.7    74    3.1    84      9.2    878.4     0.00       0     57.0
 120   20:20   43.8    73   10.8    50     20.5    878.7     0.00       0     57.1
 120   20:30   42.5    74   12.7    34     18.6    878.9     0.00       0     57.1
 120   20:40   41.4    77    3.5    53      8.0    878.8     0.01       0     57.1
 120   20:50   41.0    79    0.0     0      0.0    878.9     0.00       0     57.1
 120   21:00   41.1    80    2.1   288      4.9    879.0     0.00       0     57.1
 120   21:10   41.4    79    3.6   312      6.1    879.1     0.00       0     57.1
 120   21:20   41.9    78    7.1   312     15.1    879.2     0.00       0     57.1
 120   21:30   41.0    76   13.9   306     19.6    879.4     0.00       0     57.1
 120   21:40   39.5    79   11.0   316     17.0    879.4     0.00       0     57.1
 120   21:50   39.5    80    9.3   302     13.2    879.3     0.00       0     57.1
 120   22:00   39.7    79    8.5   306     11.7    879.2     0.00       0     57.1
 120   22:10   39.9    78    6.2   302     10.2    878.9     0.00       0     57.1
 120   22:20   39.8    78    5.5   318      9.1    878.8     0.00       0     57.0
 120   22:30   40.0    78    8.8   309     14.2    879.0     0.00       0     57.0
 120   22:40   40.6    73    8.1   329     13.1    879.2     0.00       0     57.0
 120   22:50   40.6    73    9.5   328     14.1    879.3     0.00       0     57.0
 120   23:00   40.9    73   12.2   320     16.4    879.4     0.00       0     57.0
 120   23:10   41.2    72   10.7   320     14.8    879.5     0.00       0     56.9
 120   23:20   41.4    70   12.2   324     20.4    879.5     0.01       0     56.9
 120   23:30   41.6    71   10.6   325     15.6    879.6     0.00       0     56.9
 120   23:40   41.6    72    9.6   325     15.1    879.6     0.00       0     56.8
 120   23:50   41.7    71   11.7   323     16.1    879.6     0.00       0     56.8
 121    0:00   41.9    69   12.8   321     17.2    879.7     0.00       0     56.8
 121    0:10   42.0    69   11.1   316     15.2    879.7     0.00       0     56.8
 121    0:20   42.0    69   10.2   317     14.8    879.7     0.00       0     56.8
 121    0:30   42.1    68   11.4   322     15.9    879.8     0.00       0     56.8
 121    0:40   42.1    67   11.1   321     15.1    879.9     0.00       0     56.7
 121    0:50   42.0    68    9.1   321     13.4    879.9     0.00       0     56.7
 121    1:00   42.1    66    9.3   326     13.0    879.9     0.00       0     56.7
 121    1:10   41.9    66   10.5   316     15.7    879.9     0.00       0     56.6
 121    1:20   41.6    65   11.5   324     17.5    879.9     0.00       0     56.6
 121    1:30   41.4    66   10.6   325     15.0    880.0     0.00       0     56.6
 121    1:40   41.2    66   11.0   324     15.2    880.0     0.00       0     56.5
 121    1:50   40.9    66   10.3   328     14.2    880.0     0.00       0     56.5
 121    2:00   40.7    67   10.1   330     14.0    880.0     0.00       0     56.5
 121    2:10   40.6    67    9.7   328     14.0    880.0     0.00       0     56.4
 121    2:20   40.6    67    8.7   329     12.1    880.0     0.00       0     56.4
 121    2:30   40.6    67    8.5   331     12.8    880.1     0.00       0     56.4
 121    2:40   40.5    68    7.6   330     10.7    880.2     0.00       0     56.3
 121    2:50   40.5    68    7.9   328     10.7    880.3     0.00       0     56.3
 121    3:00   40.7    67    7.9   322     11.2    880.3     0.00       0     56.2
 121    3:10   40.7    68    8.3   321     11.2    880.4     0.00       0     56.2
 121    3:20   40.6    68    7.5   316      9.9    880.3     0.00       0     56.2
 121    3:30   40.5    68    5.1   309      9.0    880.4     0.00       0     56.2
 121    3:40   40.8    67    5.3   329     10.4    880.4     0.00       0     56.1
 121    3:50   41.2    66    5.9   330      9.9    880.5     0.00       0     56.1
 121    4:00   41.2    66    8.3   339     15.4    880.5     0.00       0     56.0
 121    4:10   41.1    68   12.8   348     20.5    880.5     0.00       0     56.0
 121    4:20   40.7    71   13.2   351     19.1    880.5     0.00       0     56.0
 121    4:30   40.1    73   12.9   358     19.1    880.4     0.00       0     55.9
 121    4:40   39.1    77   12.3   345     18.2    880.4     0.00       0     55.9
 121    4:50   38.5    78   11.8   349     16.3    880.4     0.00       1     55.9
 121    5:00   37.9    80    9.5   351     14.7    880.4     0.01       2     55.8
 121    5:10   37.5    81    9.0   350     12.4    880.5     0.00       6     55.8
 121    5:20   37.4    82   10.0   339     14.9    880.7     0.00      21     55.8

Return to Blowing Sand Mountains graphs page.


Western Regional Climate Center,wrcc@dri.edu